createdAt,value
2023-05-14T00:10:01.228Z,21.80
2023-05-14T00:20:13.436Z,19.90
2023-05-14T00:30:19.965Z,22.00
2023-05-14T00:40:29.691Z,22.80
2023-05-14T00:50:36.182Z,24.40
2023-05-14T01:00:43.524Z,24.20
2023-05-14T01:10:56.508Z,22.40
2023-05-14T01:21:03.449Z,21.40
2023-05-14T01:31:14.191Z,23.40
2023-05-14T01:41:21.003Z,22.80
2023-05-14T01:51:27.522Z,22.00
2023-05-14T02:01:35.167Z,23.90
2023-05-14T02:11:42.184Z,24.60
2023-05-14T02:21:49.774Z,26.90
2023-05-14T02:31:56.344Z,23.30
2023-05-14T02:42:02.854Z,24.00
2023-05-14T02:52:09.336Z,26.10
2023-05-14T03:02:15.910Z,24.70
2023-05-14T03:12:23.218Z,26.30
2023-05-14T03:22:29.724Z,27.30
2023-05-14T03:32:36.246Z,24.40
2023-05-14T03:42:42.714Z,23.30
2023-05-14T03:52:49.711Z,23.90
2023-05-14T04:02:56.416Z,22.60
2023-05-14T04:13:02.979Z,22.30
2023-05-14T04:23:09.477Z,23.60
2023-05-14T04:33:15.963Z,22.90
2023-05-14T04:43:22.551Z,24.70
2023-05-14T04:53:29.123Z,21.20
2023-05-14T05:03:35.825Z,20.70
2023-05-14T05:13:42.782Z,20.50
2023-05-14T05:23:49.271Z,24.90
2023-05-14T05:33:55.719Z,20.50
2023-05-14T05:44:02.224Z,19.70
2023-05-14T05:54:08.768Z,19.70
2023-05-14T06:04:15.289Z,20.10
2023-05-14T06:14:21.853Z,20.30
2023-05-14T06:24:28.321Z,18.60
2023-05-14T06:34:34.826Z,18.20
2023-05-14T06:44:41.402Z,16.70
2023-05-14T06:54:47.897Z,14.10
2023-05-14T07:04:55.368Z,15.50
2023-05-14T07:15:01.855Z,14.10
2023-05-14T07:25:09.163Z,13.50
2023-05-14T07:35:15.635Z,16.50
2023-05-14T07:45:22.150Z,14.10
2023-05-14T07:55:28.630Z,11.20
2023-05-14T08:05:35.204Z,15.80
2023-05-14T08:15:42.002Z,12.70
2023-05-14T08:25:48.510Z,12.90
2023-05-14T08:35:55.453Z,10.90
2023-05-14T08:46:02.770Z,10.60
2023-05-14T08:56:10.466Z,10.30
2023-05-14T09:06:17.511Z,12.10
2023-05-14T09:16:24.561Z,10.10
2023-05-14T09:26:33.437Z,11.65
2023-05-14T09:36:40.042Z,10.10
2023-05-14T09:46:50.260Z,8.70
2023-05-14T09:56:56.780Z,10.30
2023-05-14T10:07:03.724Z,11.70
2023-05-14T10:17:19.532Z,11.80
2023-05-14T10:27:26.364Z,11.50
2023-05-14T10:37:32.937Z,11.10
2023-05-14T10:47:41.036Z,10.30
2023-05-14T10:57:48.257Z,6.60
2023-05-14T11:07:58.450Z,8.80
2023-05-14T11:18:05.110Z,8.90
2023-05-14T11:28:11.863Z,6.50
2023-05-14T11:38:19.500Z,7.10
2023-05-14T11:48:25.986Z,8.00
2023-05-14T11:58:35.716Z,6.80
2023-05-14T12:08:42.156Z,8.40
2023-05-14T12:18:48.741Z,7.70
2023-05-14T12:29:01.227Z,9.60
2023-05-14T12:39:07.763Z,8.00
2023-05-14T12:49:14.373Z,7.90
2023-05-14T12:59:20.897Z,6.60
2023-05-14T13:09:29.144Z,5.70
2023-05-14T13:19:35.641Z,7.10
2023-05-14T13:29:42.822Z,6.20
2023-05-14T13:39:50.714Z,5.60
2023-05-14T13:49:57.923Z,5.60
2023-05-14T14:00:04.606Z,6.50
2023-05-14T14:10:11.524Z,7.00
2023-05-14T14:20:18.229Z,8.70
2023-05-14T14:30:24.753Z,16.80
2023-05-14T14:40:31.369Z,11.80
2023-05-14T14:50:37.836Z,6.80
2023-05-14T15:00:45.255Z,4.60
2023-05-14T15:10:51.723Z,5.70
2023-05-14T15:20:58.221Z,7.30
2023-05-14T15:31:04.848Z,8.00
2023-05-14T15:41:11.420Z,7.90
2023-05-14T15:51:17.940Z,5.70
2023-05-14T16:01:43.029Z,6.40
2023-05-14T16:11:49.638Z,5.50
2023-05-14T16:21:56.192Z,8.70
2023-05-14T16:32:03.319Z,5.60
2023-05-14T16:42:10.059Z,8.60
2023-05-14T16:52:16.743Z,8.80
2023-05-14T17:02:23.222Z,8.00
2023-05-14T17:12:29.860Z,28.20
2023-05-14T17:22:36.539Z,7.60
2023-05-14T17:32:43.111Z,7.90
2023-05-14T17:42:49.728Z,9.00
2023-05-14T17:53:04.485Z,9.00
2023-05-14T18:03:12.014Z,11.30
2023-05-14T18:13:18.691Z,12.50
2023-05-14T18:23:25.269Z,10.30
2023-05-14T18:33:32.693Z,14.30
2023-05-14T18:43:39.197Z,14.90
2023-05-14T18:53:45.738Z,31.80
2023-05-14T19:03:54.164Z,16.20
2023-05-14T19:14:00.994Z,18.00
2023-05-14T19:24:07.666Z,18.70
2023-05-14T19:34:14.359Z,16.00
2023-05-14T19:44:20.978Z,12.70
2023-05-14T19:54:27.510Z,14.60
2023-05-14T20:04:34.676Z,18.00
2023-05-14T20:14:42.427Z,17.00
2023-05-14T20:24:48.962Z,24.20
2023-05-14T20:34:55.790Z,41.00
2023-05-14T20:45:02.299Z,36.90
2023-05-14T20:55:09.235Z,35.00
2023-05-14T21:05:15.888Z,13.70
2023-05-14T21:15:22.953Z,21.90
2023-05-14T21:25:29.997Z,17.60
2023-05-14T21:35:36.580Z,15.90
2023-05-14T21:45:44.396Z,17.50
2023-05-14T21:55:51.379Z,17.70
2023-05-14T22:05:58.219Z,21.20
2023-05-14T22:16:12.089Z,18.90
2023-05-14T22:26:20.151Z,21.20
2023-05-14T22:36:26.657Z,16.90
2023-05-14T22:46:33.207Z,18.90
2023-05-14T22:56:40.077Z,22.20
2023-05-14T23:06:47.096Z,19.00
2023-05-14T23:16:53.602Z,16.20
2023-05-14T23:27:00.142Z,15.80
2023-05-14T23:37:06.875Z,15.00
2023-05-14T23:47:13.778Z,15.70
2023-05-14T23:57:20.279Z,13.80
